sensor_id;sensor_type;location;lat;lon;timestamp;temperature;humidity
17331;DHT22;8783;52.448;4.638;2024-01-30T00:01:36;6.70;99.90
17331;DHT22;8783;52.448;4.638;2024-01-30T00:04:02;6.80;99.90
17331;DHT22;8783;52.448;4.638;2024-01-30T00:06:27;6.70;99.90
17331;DHT22;8783;52.448;4.638;2024-01-30T00:08:53;6.70;99.90
17331;DHT22;8783;52.448;4.638;2024-01-30T00:11:18;6.70;99.90
17331;DHT22;8783;52.448;4.638;2024-01-30T00:13:44;6.70;99.90
17331;DHT22;8783;52.448;4.638;2024-01-30T00:16:23;6.70;99.90
17331;DHT22;8783;52.448;4.638;2024-01-30T00:18:52;6.70;99.90
17331;DHT22;8783;52.448;4.638;2024-01-30T00:21:19;6.70;99.90
17331;DHT22;8783;52.448;4.638;2024-01-30T00:23:45;6.70;99.90
17331;DHT22;8783;52.448;4.638;2024-01-30T00:26:11;6.70;99.90
17331;DHT22;8783;52.448;4.638;2024-01-30T00:28:37;6.70;99.90
17331;DHT22;8783;52.448;4.638;2024-01-30T00:31:03;6.70;99.90
17331;DHT22;8783;52.448;4.638;2024-01-30T00:33:29;6.70;99.90
17331;DHT22;8783;52.448;4.638;2024-01-30T00:35:55;6.70;99.90
17331;DHT22;8783;52.448;4.638;2024-01-30T00:38:21;6.70;99.90
17331;DHT22;8783;52.448;4.638;2024-01-30T00:40:46;6.70;99.90
17331;DHT22;8783;52.448;4.638;2024-01-30T00:43:12;6.70;99.90
17331;DHT22;8783;52.448;4.638;2024-01-30T00:45:37;6.70;99.90
17331;DHT22;8783;52.448;4.638;2024-01-30T00:48:03;6.70;99.90
17331;DHT22;8783;52.448;4.638;2024-01-30T00:50:29;6.70;99.90
17331;DHT22;8783;52.448;4.638;2024-01-30T00:52:55;6.80;99.90
17331;DHT22;8783;52.448;4.638;2024-01-30T00:55:20;6.70;99.90
17331;DHT22;8783;52.448;4.638;2024-01-30T00:57:46;6.70;99.90
17331;DHT22;8783;52.448;4.638;2024-01-30T01:00:13;6.70;99.90
17331;DHT22;8783;52.448;4.638;2024-01-30T01:02:41;6.80;99.90
17331;DHT22;8783;52.448;4.638;2024-01-30T01:05:07;6.80;99.90
17331;DHT22;8783;52.448;4.638;2024-01-30T01:07:32;6.80;99.90
17331;DHT22;8783;52.448;4.638;2024-01-30T01:09:58;6.80;99.90
17331;DHT22;8783;52.448;4.638;2024-01-30T01:12:23;6.80;99.90
17331;DHT22;8783;52.448;4.638;2024-01-30T01:14:49;6.80;99.90
17331;DHT22;8783;52.448;4.638;2024-01-30T01:17:14;6.80;99.90
17331;DHT22;8783;52.448;4.638;2024-01-30T01:19:40;6.80;99.90
17331;DHT22;8783;52.448;4.638;2024-01-30T01:22:06;6.80;99.90
17331;DHT22;8783;52.448;4.638;2024-01-30T01:24:31;6.80;99.90
17331;DHT22;8783;52.448;4.638;2024-01-30T01:26:58;6.80;99.90
17331;DHT22;8783;52.448;4.638;2024-01-30T01:29:24;6.80;99.90
17331;DHT22;8783;52.448;4.638;2024-01-30T01:31:57;6.80;99.90
17331;DHT22;8783;52.448;4.638;2024-01-30T01:34:23;6.80;99.90
17331;DHT22;8783;52.448;4.638;2024-01-30T01:36:49;6.80;99.90
17331;DHT22;8783;52.448;4.638;2024-01-30T01:39:15;6.80;99.90
17331;DHT22;8783;52.448;4.638;2024-01-30T01:41:41;6.90;99.90
17331;DHT22;8783;52.448;4.638;2024-01-30T01:44:07;6.80;99.90
17331;DHT22;8783;52.448;4.638;2024-01-30T01:46:33;6.90;99.90
17331;DHT22;8783;52.448;4.638;2024-01-30T01:49:02;6.90;99.90
17331;DHT22;8783;52.448;4.638;2024-01-30T01:51:29;6.90;99.90
17331;DHT22;8783;52.448;4.638;2024-01-30T01:53:55;6.90;99.90
17331;DHT22;8783;52.448;4.638;2024-01-30T01:56:23;6.90;99.90
17331;DHT22;8783;52.448;4.638;2024-01-30T01:58:49;6.90;99.90
17331;DHT22;8783;52.448;4.638;2024-01-30T02:01:17;6.90;99.90
17331;DHT22;8783;52.448;4.638;2024-01-30T02:03:45;6.80;99.90
17331;DHT22;8783;52.448;4.638;2024-01-30T02:06:12;6.80;99.90
17331;DHT22;8783;52.448;4.638;2024-01-30T02:08:39;6.80;99.90
17331;DHT22;8783;52.448;4.638;2024-01-30T02:11:05;6.80;99.90
17331;DHT22;8783;52.448;4.638;2024-01-30T02:13:30;6.90;99.90
17331;DHT22;8783;52.448;4.638;2024-01-30T02:15:56;6.80;99.90
17331;DHT22;8783;52.448;4.638;2024-01-30T02:18:22;6.80;99.90
17331;DHT22;8783;52.448;4.638;2024-01-30T02:20:48;6.80;99.90
17331;DHT22;8783;52.448;4.638;2024-01-30T02:23:15;6.80;99.90
17331;DHT22;8783;52.448;4.638;2024-01-30T02:25:42;6.90;99.90
17331;DHT22;8783;52.448;4.638;2024-01-30T02:28:13;6.80;99.90
17331;DHT22;8783;52.448;4.638;2024-01-30T02:30:39;6.80;99.90
17331;DHT22;8783;52.448;4.638;2024-01-30T02:33:05;6.80;99.90
17331;DHT22;8783;52.448;4.638;2024-01-30T02:35:31;6.80;99.90
17331;DHT22;8783;52.448;4.638;2024-01-30T02:37:56;6.80;99.90
17331;DHT22;8783;52.448;4.638;2024-01-30T02:40:22;6.80;99.90
17331;DHT22;8783;52.448;4.638;2024-01-30T02:42:48;6.80;99.90
17331;DHT22;8783;52.448;4.638;2024-01-30T02:45:13;6.80;99.90
17331;DHT22;8783;52.448;4.638;2024-01-30T02:47:39;6.80;99.90
17331;DHT22;8783;52.448;4.638;2024-01-30T02:50:06;6.80;99.90
17331;DHT22;8783;52.448;4.638;2024-01-30T02:52:32;6.80;99.90
17331;DHT22;8783;52.448;4.638;2024-01-30T02:54:57;6.80;99.90
17331;DHT22;8783;52.448;4.638;2024-01-30T02:57:23;6.80;99.90
17331;DHT22;8783;52.448;4.638;2024-01-30T02:59:48;6.80;99.90
17331;DHT22;8783;52.448;4.638;2024-01-30T03:02:14;6.80;99.90
17331;DHT22;8783;52.448;4.638;2024-01-30T03:04:43;6.80;99.90
17331;DHT22;8783;52.448;4.638;2024-01-30T03:07:09;6.80;99.90
17331;DHT22;8783;52.448;4.638;2024-01-30T03:09:36;6.80;99.90
17331;DHT22;8783;52.448;4.638;2024-01-30T03:12:01;6.80;99.90
17331;DHT22;8783;52.448;4.638;2024-01-30T03:14:27;6.80;99.90
17331;DHT22;8783;52.448;4.638;2024-01-30T03:16:52;6.80;99.90
17331;DHT22;8783;52.448;4.638;2024-01-30T03:19:18;6.80;99.90
17331;DHT22;8783;52.448;4.638;2024-01-30T03:21:44;6.80;99.90
17331;DHT22;8783;52.448;4.638;2024-01-30T03:24:09;6.80;99.90
17331;DHT22;8783;52.448;4.638;2024-01-30T03:26:35;6.80;99.90
17331;DHT22;8783;52.448;4.638;2024-01-30T03:29:00;6.80;99.90
17331;DHT22;8783;52.448;4.638;2024-01-30T03:31:26;6.80;99.90
17331;DHT22;8783;52.448;4.638;2024-01-30T03:33:52;6.80;99.90
17331;DHT22;8783;52.448;4.638;2024-01-30T03:36:18;6.80;99.90
17331;DHT22;8783;52.448;4.638;2024-01-30T03:38:43;6.80;99.90
17331;DHT22;8783;52.448;4.638;2024-01-30T03:41:09;6.80;99.90
17331;DHT22;8783;52.448;4.638;2024-01-30T03:43:36;6.80;99.90
17331;DHT22;8783;52.448;4.638;2024-01-30T03:46:02;6.80;99.90
17331;DHT22;8783;52.448;4.638;2024-01-30T03:48:28;6.80;99.90
17331;DHT22;8783;52.448;4.638;2024-01-30T03:50:54;6.80;99.90
17331;DHT22;8783;52.448;4.638;2024-01-30T03:53:19;6.80;99.90
17331;DHT22;8783;52.448;4.638;2024-01-30T03:55:45;6.80;99.90
17331;DHT22;8783;52.448;4.638;2024-01-30T03:58:10;6.90;99.90
17331;DHT22;8783;52.448;4.638;2024-01-30T04:00:36;6.80;99.90
17331;DHT22;8783;52.448;4.638;2024-01-30T04:03:02;6.80;99.90
17331;DHT22;8783;52.448;4.638;2024-01-30T04:05:27;6.80;99.90
17331;DHT22;8783;52.448;4.638;2024-01-30T04:07:53;6.90;99.90
17331;DHT22;8783;52.448;4.638;2024-01-30T04:10:19;6.90;99.90
17331;DHT22;8783;52.448;4.638;2024-01-30T04:12:44;6.90;99.90
17331;DHT22;8783;52.448;4.638;2024-01-30T04:15:10;6.90;99.90
17331;DHT22;8783;52.448;4.638;2024-01-30T04:17:36;6.90;99.90
17331;DHT22;8783;52.448;4.638;2024-01-30T04:20:02;6.90;99.90
17331;DHT22;8783;52.448;4.638;2024-01-30T04:22:27;6.90;99.90
17331;DHT22;8783;52.448;4.638;2024-01-30T04:24:53;6.90;99.90
17331;DHT22;8783;52.448;4.638;2024-01-30T04:27:18;6.90;99.90
17331;DHT22;8783;52.448;4.638;2024-01-30T04:29:44;6.90;99.90
17331;DHT22;8783;52.448;4.638;2024-01-30T04:32:10;6.90;99.90
17331;DHT22;8783;52.448;4.638;2024-01-30T04:34:38;6.90;99.90
17331;DHT22;8783;52.448;4.638;2024-01-30T04:37:04;6.90;99.90
17331;DHT22;8783;52.448;4.638;2024-01-30T04:39:30;6.90;99.90
17331;DHT22;8783;52.448;4.638;2024-01-30T04:41:55;6.90;99.90
17331;DHT22;8783;52.448;4.638;2024-01-30T04:44:21;6.90;99.90
17331;DHT22;8783;52.448;4.638;2024-01-30T04:46:46;7.00;99.90
17331;DHT22;8783;52.448;4.638;2024-01-30T04:49:12;7.00;99.90
17331;DHT22;8783;52.448;4.638;2024-01-30T04:51:38;7.00;99.90
17331;DHT22;8783;52.448;4.638;2024-01-30T04:54:03;7.00;99.90
17331;DHT22;8783;52.448;4.638;2024-01-30T04:56:29;7.00;99.90
17331;DHT22;8783;52.448;4.638;2024-01-30T04:58:56;7.00;99.90
17331;DHT22;8783;52.448;4.638;2024-01-30T05:01:21;7.00;99.90
17331;DHT22;8783;52.448;4.638;2024-01-30T05:03:47;7.00;99.90
17331;DHT22;8783;52.448;4.638;2024-01-30T05:06:13;7.00;99.90
17331;DHT22;8783;52.448;4.638;2024-01-30T05:08:38;7.00;99.90
17331;DHT22;8783;52.448;4.638;2024-01-30T05:11:07;7.00;99.90
17331;DHT22;8783;52.448;4.638;2024-01-30T05:13:32;7.00;99.90
17331;DHT22;8783;52.448;4.638;2024-01-30T05:15:58;7.10;99.90
17331;DHT22;8783;52.448;4.638;2024-01-30T05:18:24;7.10;99.90
17331;DHT22;8783;52.448;4.638;2024-01-30T05:20:50;7.10;99.90
17331;DHT22;8783;52.448;4.638;2024-01-30T05:23:16;7.10;99.90
17331;DHT22;8783;52.448;4.638;2024-01-30T05:25:42;7.10;99.90
17331;DHT22;8783;52.448;4.638;2024-01-30T05:28:07;7.10;99.90
17331;DHT22;8783;52.448;4.638;2024-01-30T05:30:33;7.10;99.90
17331;DHT22;8783;52.448;4.638;2024-01-30T05:32:59;7.10;99.90
17331;DHT22;8783;52.448;4.638;2024-01-30T05:35:24;7.10;99.90
17331;DHT22;8783;52.448;4.638;2024-01-30T05:37:50;7.10;99.90
17331;DHT22;8783;52.448;4.638;2024-01-30T05:40:16;7.10;99.90
17331;DHT22;8783;52.448;4.638;2024-01-30T05:42:42;7.10;99.90
17331;DHT22;8783;52.448;4.638;2024-01-30T05:45:07;7.10;99.90
17331;DHT22;8783;52.448;4.638;2024-01-30T05:47:36;7.10;99.90
17331;DHT22;8783;52.448;4.638;2024-01-30T05:50:02;7.10;99.90
17331;DHT22;8783;52.448;4.638;2024-01-30T05:52:28;7.20;99.90
17331;DHT22;8783;52.448;4.638;2024-01-30T05:54:54;7.20;99.90
17331;DHT22;8783;52.448;4.638;2024-01-30T05:57:20;7.20;99.90
17331;DHT22;8783;52.448;4.638;2024-01-30T05:59:45;7.20;99.90
17331;DHT22;8783;52.448;4.638;2024-01-30T06:02:13;7.20;99.90
17331;DHT22;8783;52.448;4.638;2024-01-30T06:04:39;7.20;99.90
17331;DHT22;8783;52.448;4.638;2024-01-30T06:07:04;7.20;99.90
17331;DHT22;8783;52.448;4.638;2024-01-30T06:09:31;7.20;99.90
17331;DHT22;8783;52.448;4.638;2024-01-30T06:11:57;7.20;99.90
17331;DHT22;8783;52.448;4.638;2024-01-30T06:14:23;7.20;99.90
17331;DHT22;8783;52.448;4.638;2024-01-30T06:16:49;7.20;99.90
17331;DHT22;8783;52.448;4.638;2024-01-30T06:19:15;7.20;99.90
17331;DHT22;8783;52.448;4.638;2024-01-30T06:21:41;7.20;99.90
17331;DHT22;8783;52.448;4.638;2024-01-30T06:24:06;7.20;99.90
17331;DHT22;8783;52.448;4.638;2024-01-30T06:26:32;7.30;99.90
17331;DHT22;8783;52.448;4.638;2024-01-30T06:28:58;7.30;99.90
17331;DHT22;8783;52.448;4.638;2024-01-30T06:31:24;7.30;99.90
17331;DHT22;8783;52.448;4.638;2024-01-30T06:33:49;7.30;99.90
17331;DHT22;8783;52.448;4.638;2024-01-30T06:36:15;7.30;99.90
17331;DHT22;8783;52.448;4.638;2024-01-30T06:38:41;7.30;99.90
17331;DHT22;8783;52.448;4.638;2024-01-30T06:41:07;7.30;99.90
17331;DHT22;8783;52.448;4.638;2024-01-30T06:43:32;7.30;99.90
17331;DHT22;8783;52.448;4.638;2024-01-30T06:45:58;7.30;99.90
17331;DHT22;8783;52.448;4.638;2024-01-30T06:48:24;7.30;99.90
17331;DHT22;8783;52.448;4.638;2024-01-30T06:50:53;7.40;99.90
17331;DHT22;8783;52.448;4.638;2024-01-30T06:53:19;7.40;99.90
17331;DHT22;8783;52.448;4.638;2024-01-30T06:55:45;7.40;99.90
17331;DHT22;8783;52.448;4.638;2024-01-30T06:58:10;7.40;99.90
17331;DHT22;8783;52.448;4.638;2024-01-30T07:00:36;7.40;99.90
17331;DHT22;8783;52.448;4.638;2024-01-30T07:03:02;7.40;99.90
17331;DHT22;8783;52.448;4.638;2024-01-30T07:05:27;7.40;99.90
17331;DHT22;8783;52.448;4.638;2024-01-30T07:07:56;7.40;99.90
17331;DHT22;8783;52.448;4.638;2024-01-30T07:10:22;7.40;99.90
17331;DHT22;8783;52.448;4.638;2024-01-30T07:12:47;7.50;99.90
17331;DHT22;8783;52.448;4.638;2024-01-30T07:15:13;7.50;99.90
17331;DHT22;8783;52.448;4.638;2024-01-30T07:17:42;7.50;99.90
17331;DHT22;8783;52.448;4.638;2024-01-30T07:20:08;7.50;99.90
17331;DHT22;8783;52.448;4.638;2024-01-30T07:22:34;7.50;99.90
17331;DHT22;8783;52.448;4.638;2024-01-30T07:25:00;7.50;99.90
17331;DHT22;8783;52.448;4.638;2024-01-30T07:27:28;7.50;99.90
17331;DHT22;8783;52.448;4.638;2024-01-30T07:29:54;7.50;99.90
17331;DHT22;8783;52.448;4.638;2024-01-30T07:32:19;7.50;99.90
17331;DHT22;8783;52.448;4.638;2024-01-30T07:34:45;7.60;99.90
17331;DHT22;8783;52.448;4.638;2024-01-30T07:37:10;7.60;99.90
17331;DHT22;8783;52.448;4.638;2024-01-30T07:39:38;7.60;99.90
17331;DHT22;8783;52.448;4.638;2024-01-30T07:42:04;7.60;99.90
17331;DHT22;8783;52.448;4.638;2024-01-30T07:44:29;7.60;99.90
17331;DHT22;8783;52.448;4.638;2024-01-30T07:46:55;7.70;99.90
17331;DHT22;8783;52.448;4.638;2024-01-30T07:49:21;7.70;99.90
17331;DHT22;8783;52.448;4.638;2024-01-30T07:51:46;7.70;99.90
17331;DHT22;8783;52.448;4.638;2024-01-30T07:54:15;7.80;99.90
17331;DHT22;8783;52.448;4.638;2024-01-30T07:56:41;7.80;99.90
17331;DHT22;8783;52.448;4.638;2024-01-30T07:59:10;7.80;99.90
17331;DHT22;8783;52.448;4.638;2024-01-30T08:01:36;7.90;99.90
17331;DHT22;8783;52.448;4.638;2024-01-30T08:04:02;7.90;99.90
17331;DHT22;8783;52.448;4.638;2024-01-30T08:06:28;7.90;99.90
17331;DHT22;8783;52.448;4.638;2024-01-30T08:08:53;8.00;99.90
17331;DHT22;8783;52.448;4.638;2024-01-30T08:11:22;8.00;99.90
17331;DHT22;8783;52.448;4.638;2024-01-30T08:13:55;8.00;99.90
17331;DHT22;8783;52.448;4.638;2024-01-30T08:16:20;8.10;99.90
17331;DHT22;8783;52.448;4.638;2024-01-30T08:18:46;8.10;99.90
17331;DHT22;8783;52.448;4.638;2024-01-30T08:21:11;8.10;99.90
17331;DHT22;8783;52.448;4.638;2024-01-30T08:23:40;8.20;99.90
17331;DHT22;8783;52.448;4.638;2024-01-30T08:26:06;8.20;99.90
17331;DHT22;8783;52.448;4.638;2024-01-30T08:28:32;8.30;99.90
17331;DHT22;8783;52.448;4.638;2024-01-30T08:30:58;8.20;99.90
17331;DHT22;8783;52.448;4.638;2024-01-30T08:33:24;8.30;99.90
17331;DHT22;8783;52.448;4.638;2024-01-30T08:35:49;8.30;99.90
17331;DHT22;8783;52.448;4.638;2024-01-30T08:38:15;8.30;99.90
17331;DHT22;8783;52.448;4.638;2024-01-30T08:40:41;8.40;99.90
17331;DHT22;8783;52.448;4.638;2024-01-30T08:43:06;8.30;99.90
17331;DHT22;8783;52.448;4.638;2024-01-30T08:45:36;8.40;99.90
17331;DHT22;8783;52.448;4.638;2024-01-30T08:48:02;8.30;99.90
17331;DHT22;8783;52.448;4.638;2024-01-30T08:50:28;8.40;99.90
17331;DHT22;8783;52.448;4.638;2024-01-30T08:52:53;8.40;99.90
17331;DHT22;8783;52.448;4.638;2024-01-30T08:55:22;8.40;99.90
17331;DHT22;8783;52.448;4.638;2024-01-30T08:57:48;8.40;99.90
17331;DHT22;8783;52.448;4.638;2024-01-30T09:00:13;8.40;99.90
17331;DHT22;8783;52.448;4.638;2024-01-30T09:02:40;8.40;99.90
17331;DHT22;8783;52.448;4.638;2024-01-30T09:05:06;8.50;99.90
17331;DHT22;8783;52.448;4.638;2024-01-30T09:07:31;8.50;99.90
17331;DHT22;8783;52.448;4.638;2024-01-30T09:09:57;8.50;99.90
17331;DHT22;8783;52.448;4.638;2024-01-30T09:12:23;8.50;99.90
17331;DHT22;8783;52.448;4.638;2024-01-30T09:14:48;8.50;99.90
17331;DHT22;8783;52.448;4.638;2024-01-30T09:17:14;8.50;99.90
17331;DHT22;8783;52.448;4.638;2024-01-30T09:19:40;8.50;99.90
17331;DHT22;8783;52.448;4.638;2024-01-30T09:22:06;8.60;99.90
17331;DHT22;8783;52.448;4.638;2024-01-30T09:24:32;8.60;99.90
17331;DHT22;8783;52.448;4.638;2024-01-30T09:26:57;8.60;99.90
17331;DHT22;8783;52.448;4.638;2024-01-30T09:29:23;8.60;99.90
17331;DHT22;8783;52.448;4.638;2024-01-30T09:31:48;8.60;99.90
17331;DHT22;8783;52.448;4.638;2024-01-30T09:34:14;8.70;99.90
17331;DHT22;8783;52.448;4.638;2024-01-30T09:36:40;8.70;99.90
17331;DHT22;8783;52.448;4.638;2024-01-30T09:39:05;8.70;99.90
17331;DHT22;8783;52.448;4.638;2024-01-30T09:41:49;8.70;99.90
17331;DHT22;8783;52.448;4.638;2024-01-30T09:44:20;8.70;99.90
17331;DHT22;8783;52.448;4.638;2024-01-30T09:46:47;8.70;99.90
17331;DHT22;8783;52.448;4.638;2024-01-30T09:49:15;8.70;99.90
17331;DHT22;8783;52.448;4.638;2024-01-30T09:51:44;8.70;99.90
17331;DHT22;8783;52.448;4.638;2024-01-30T09:54:10;8.70;99.90
17331;DHT22;8783;52.448;4.638;2024-01-30T09:56:39;8.70;99.90
17331;DHT22;8783;52.448;4.638;2024-01-30T09:59:04;8.70;99.90
17331;DHT22;8783;52.448;4.638;2024-01-30T10:01:31;8.70;99.90
17331;DHT22;8783;52.448;4.638;2024-01-30T10:03:57;8.70;99.90
17331;DHT22;8783;52.448;4.638;2024-01-30T10:06:24;8.70;99.90
17331;DHT22;8783;52.448;4.638;2024-01-30T10:08:50;8.70;99.90
17331;DHT22;8783;52.448;4.638;2024-01-30T10:11:16;8.80;99.90
17331;DHT22;8783;52.448;4.638;2024-01-30T10:13:41;8.80;99.90
17331;DHT22;8783;52.448;4.638;2024-01-30T10:16:07;8.70;99.90
17331;DHT22;8783;52.448;4.638;2024-01-30T10:18:32;8.80;99.90
17331;DHT22;8783;52.448;4.638;2024-01-30T10:20:59;8.80;99.90
17331;DHT22;8783;52.448;4.638;2024-01-30T10:23:25;8.80;99.90
17331;DHT22;8783;52.448;4.638;2024-01-30T10:25:54;8.80;99.90
17331;DHT22;8783;52.448;4.638;2024-01-30T10:28:19;8.80;99.90
17331;DHT22;8783;52.448;4.638;2024-01-30T10:30:46;8.80;99.90
17331;DHT22;8783;52.448;4.638;2024-01-30T10:33:12;8.90;99.90
17331;DHT22;8783;52.448;4.638;2024-01-30T10:35:38;8.80;99.90
17331;DHT22;8783;52.448;4.638;2024-01-30T10:38:05;8.80;99.90
17331;DHT22;8783;52.448;4.638;2024-01-30T10:40:34;8.80;99.90
17331;DHT22;8783;52.448;4.638;2024-01-30T10:43:01;8.80;99.90
17331;DHT22;8783;52.448;4.638;2024-01-30T10:45:28;8.80;99.90
17331;DHT22;8783;52.448;4.638;2024-01-30T10:47:55;8.80;99.90
17331;DHT22;8783;52.448;4.638;2024-01-30T10:50:26;8.80;99.90
17331;DHT22;8783;52.448;4.638;2024-01-30T10:52:54;8.80;99.90
17331;DHT22;8783;52.448;4.638;2024-01-30T10:55:24;8.80;99.90
17331;DHT22;8783;52.448;4.638;2024-01-30T10:57:50;8.80;99.90
17331;DHT22;8783;52.448;4.638;2024-01-30T11:00:16;8.80;99.90
17331;DHT22;8783;52.448;4.638;2024-01-30T11:02:45;8.90;99.90
17331;DHT22;8783;52.448;4.638;2024-01-30T11:05:12;8.90;99.90
17331;DHT22;8783;52.448;4.638;2024-01-30T11:07:40;8.80;99.90
17331;DHT22;8783;52.448;4.638;2024-01-30T11:10:07;8.90;99.90
17331;DHT22;8783;52.448;4.638;2024-01-30T11:12:38;8.90;99.90
17331;DHT22;8783;52.448;4.638;2024-01-30T11:15:10;8.90;99.90
17331;DHT22;8783;52.448;4.638;2024-01-30T11:18:06;8.90;99.90
17331;DHT22;8783;52.448;4.638;2024-01-30T11:20:31;8.90;99.90
17331;DHT22;8783;52.448;4.638;2024-01-30T11:22:58;8.90;99.90
17331;DHT22;8783;52.448;4.638;2024-01-30T11:25:24;8.90;99.90
17331;DHT22;8783;52.448;4.638;2024-01-30T11:27:52;8.90;99.90
17331;DHT22;8783;52.448;4.638;2024-01-30T11:30:26;8.90;99.90
17331;DHT22;8783;52.448;4.638;2024-01-30T11:35:25;8.90;99.90
17331;DHT22;8783;52.448;4.638;2024-01-30T11:37:51;8.90;99.90
17331;DHT22;8783;52.448;4.638;2024-01-30T11:40:17;8.90;99.90
17331;DHT22;8783;52.448;4.638;2024-01-30T11:42:44;8.90;99.90
17331;DHT22;8783;52.448;4.638;2024-01-30T11:45:11;8.90;99.90
17331;DHT22;8783;52.448;4.638;2024-01-30T11:47:37;8.90;99.90
17331;DHT22;8783;52.448;4.638;2024-01-30T11:50:06;8.90;99.90
17331;DHT22;8783;52.448;4.638;2024-01-30T11:52:33;8.90;99.90
17331;DHT22;8783;52.448;4.638;2024-01-30T11:55:00;8.90;99.90
17331;DHT22;8783;52.448;4.638;2024-01-30T11:57:27;8.90;99.90
17331;DHT22;8783;52.448;4.638;2024-01-30T11:59:52;8.90;99.90
17331;DHT22;8783;52.448;4.638;2024-01-30T12:02:18;8.90;99.90
17331;DHT22;8783;52.448;4.638;2024-01-30T12:04:44;8.90;99.90
17331;DHT22;8783;52.448;4.638;2024-01-30T12:07:10;8.90;99.90
17331;DHT22;8783;52.448;4.638;2024-01-30T12:09:36;8.90;99.90
17331;DHT22;8783;52.448;4.638;2024-01-30T12:12:02;8.90;99.90
17331;DHT22;8783;52.448;4.638;2024-01-30T12:14:28;8.90;99.90
17331;DHT22;8783;52.448;4.638;2024-01-30T12:16:54;8.90;99.90
17331;DHT22;8783;52.448;4.638;2024-01-30T12:19:24;8.90;99.90
17331;DHT22;8783;52.448;4.638;2024-01-30T12:21:57;8.90;99.90
17331;DHT22;8783;52.448;4.638;2024-01-30T12:24:27;8.90;99.90
17331;DHT22;8783;52.448;4.638;2024-01-30T12:26:57;8.90;99.90
17331;DHT22;8783;52.448;4.638;2024-01-30T12:29:23;8.90;99.90
17331;DHT22;8783;52.448;4.638;2024-01-30T12:31:53;8.90;99.90
17331;DHT22;8783;52.448;4.638;2024-01-30T12:34:18;8.90;99.90
17331;DHT22;8783;52.448;4.638;2024-01-30T12:36:47;8.90;99.90
17331;DHT22;8783;52.448;4.638;2024-01-30T12:39:14;8.90;99.90
17331;DHT22;8783;52.448;4.638;2024-01-30T12:41:43;8.90;99.90
17331;DHT22;8783;52.448;4.638;2024-01-30T12:44:09;8.90;99.90
17331;DHT22;8783;52.448;4.638;2024-01-30T12:46:35;8.90;99.90
17331;DHT22;8783;52.448;4.638;2024-01-30T12:49:00;8.90;99.90
17331;DHT22;8783;52.448;4.638;2024-01-30T12:51:26;8.90;99.90
17331;DHT22;8783;52.448;4.638;2024-01-30T12:53:52;8.90;99.90
17331;DHT22;8783;52.448;4.638;2024-01-30T12:56:17;8.90;99.90
17331;DHT22;8783;52.448;4.638;2024-01-30T12:58:43;8.90;99.90
17331;DHT22;8783;52.448;4.638;2024-01-30T13:01:09;8.90;99.90
17331;DHT22;8783;52.448;4.638;2024-01-30T13:03:35;8.90;99.90
17331;DHT22;8783;52.448;4.638;2024-01-30T13:06:01;8.90;99.90
17331;DHT22;8783;52.448;4.638;2024-01-30T13:08:26;8.90;99.90
17331;DHT22;8783;52.448;4.638;2024-01-30T13:10:52;8.90;99.90
17331;DHT22;8783;52.448;4.638;2024-01-30T13:13:18;8.90;99.90
17331;DHT22;8783;52.448;4.638;2024-01-30T13:15:43;8.90;99.90
17331;DHT22;8783;52.448;4.638;2024-01-30T13:18:10;8.90;99.90
17331;DHT22;8783;52.448;4.638;2024-01-30T13:20:35;8.90;99.90
17331;DHT22;8783;52.448;4.638;2024-01-30T13:23:01;8.90;99.90
17331;DHT22;8783;52.448;4.638;2024-01-30T13:25:27;8.90;99.90
17331;DHT22;8783;52.448;4.638;2024-01-30T13:27:52;8.90;99.90
17331;DHT22;8783;52.448;4.638;2024-01-30T13:30:18;8.90;99.90
17331;DHT22;8783;52.448;4.638;2024-01-30T13:32:44;8.90;99.90
17331;DHT22;8783;52.448;4.638;2024-01-30T13:35:14;8.90;99.90
17331;DHT22;8783;52.448;4.638;2024-01-30T13:37:40;8.90;99.90
17331;DHT22;8783;52.448;4.638;2024-01-30T13:40:07;8.90;99.90
17331;DHT22;8783;52.448;4.638;2024-01-30T13:42:34;8.90;99.90
17331;DHT22;8783;52.448;4.638;2024-01-30T13:44:59;8.90;99.90
17331;DHT22;8783;52.448;4.638;2024-01-30T13:47:25;8.90;99.90
17331;DHT22;8783;52.448;4.638;2024-01-30T13:49:51;8.90;99.90
17331;DHT22;8783;52.448;4.638;2024-01-30T13:52:18;8.90;99.90
17331;DHT22;8783;52.448;4.638;2024-01-30T13:54:44;8.90;99.90
17331;DHT22;8783;52.448;4.638;2024-01-30T13:57:09;8.90;99.90
17331;DHT22;8783;52.448;4.638;2024-01-30T13:59:37;8.90;99.90
17331;DHT22;8783;52.448;4.638;2024-01-30T14:02:03;8.90;99.90
17331;DHT22;8783;52.448;4.638;2024-01-30T14:04:29;8.90;99.90
17331;DHT22;8783;52.448;4.638;2024-01-30T14:06:55;8.90;99.90
17331;DHT22;8783;52.448;4.638;2024-01-30T14:09:20;8.90;99.90
17331;DHT22;8783;52.448;4.638;2024-01-30T14:11:46;8.90;99.90
17331;DHT22;8783;52.448;4.638;2024-01-30T14:14:12;8.90;99.90
17331;DHT22;8783;52.448;4.638;2024-01-30T14:16:38;8.90;99.90
17331;DHT22;8783;52.448;4.638;2024-01-30T14:19:03;8.90;99.90
17331;DHT22;8783;52.448;4.638;2024-01-30T14:21:29;8.90;99.90
17331;DHT22;8783;52.448;4.638;2024-01-30T14:23:55;8.90;99.90
17331;DHT22;8783;52.448;4.638;2024-01-30T14:26:20;8.90;99.90
17331;DHT22;8783;52.448;4.638;2024-01-30T14:28:46;8.90;99.90
17331;DHT22;8783;52.448;4.638;2024-01-30T14:31:12;8.90;99.90
17331;DHT22;8783;52.448;4.638;2024-01-30T14:33:37;8.90;99.90
17331;DHT22;8783;52.448;4.638;2024-01-30T14:36:03;8.90;99.90
17331;DHT22;8783;52.448;4.638;2024-01-30T14:38:29;8.90;99.90
17331;DHT22;8783;52.448;4.638;2024-01-30T14:40:55;8.90;99.90
17331;DHT22;8783;52.448;4.638;2024-01-30T14:43:20;8.90;99.90
17331;DHT22;8783;52.448;4.638;2024-01-30T14:45:46;8.90;99.90
17331;DHT22;8783;52.448;4.638;2024-01-30T14:48:15;8.90;99.90
17331;DHT22;8783;52.448;4.638;2024-01-30T14:50:40;8.90;99.90
17331;DHT22;8783;52.448;4.638;2024-01-30T14:53:06;8.90;99.90
17331;DHT22;8783;52.448;4.638;2024-01-30T14:55:32;8.90;99.90
17331;DHT22;8783;52.448;4.638;2024-01-30T14:57:58;8.90;99.90
17331;DHT22;8783;52.448;4.638;2024-01-30T15:00:24;8.90;99.90
17331;DHT22;8783;52.448;4.638;2024-01-30T15:02:50;8.90;99.90
17331;DHT22;8783;52.448;4.638;2024-01-30T15:05:16;8.90;99.90
17331;DHT22;8783;52.448;4.638;2024-01-30T15:07:41;8.80;99.90
17331;DHT22;8783;52.448;4.638;2024-01-30T15:10:08;8.80;99.90
17331;DHT22;8783;52.448;4.638;2024-01-30T15:12:34;8.90;99.90
17331;DHT22;8783;52.448;4.638;2024-01-30T15:15:00;8.80;99.90
17331;DHT22;8783;52.448;4.638;2024-01-30T15:17:26;8.80;99.90
17331;DHT22;8783;52.448;4.638;2024-01-30T15:19:51;8.80;99.90
17331;DHT22;8783;52.448;4.638;2024-01-30T15:22:17;8.80;99.90
17331;DHT22;8783;52.448;4.638;2024-01-30T15:24:43;8.80;99.90
17331;DHT22;8783;52.448;4.638;2024-01-30T15:27:08;8.80;99.90
17331;DHT22;8783;52.448;4.638;2024-01-30T15:29:34;8.80;99.90
17331;DHT22;8783;52.448;4.638;2024-01-30T15:32:00;8.80;99.90
17331;DHT22;8783;52.448;4.638;2024-01-30T15:34:25;8.80;99.90
17331;DHT22;8783;52.448;4.638;2024-01-30T15:36:51;8.80;99.90
17331;DHT22;8783;52.448;4.638;2024-01-30T15:39:17;8.80;99.90
17331;DHT22;8783;52.448;4.638;2024-01-30T15:41:43;8.80;99.90
17331;DHT22;8783;52.448;4.638;2024-01-30T15:44:08;8.70;99.90
17331;DHT22;8783;52.448;4.638;2024-01-30T15:46:34;8.70;99.90
17331;DHT22;8783;52.448;4.638;2024-01-30T15:49:00;8.70;99.90
17331;DHT22;8783;52.448;4.638;2024-01-30T15:51:26;8.70;99.90
17331;DHT22;8783;52.448;4.638;2024-01-30T15:53:52;8.80;99.90
17331;DHT22;8783;52.448;4.638;2024-01-30T15:56:18;8.70;99.90
17331;DHT22;8783;52.448;4.638;2024-01-30T15:58:44;8.70;99.90